SBJP/JPA METAR and TAF weather

Enter ICAO airport designator
Station Type Date Time Source
SBJP METAR 2020/10/29 17:00 UTC NOAA

SBJP 291700Z 09010KT 9999 SCT030 30/21 Q1011


Station Type Date Time Source
SBJP Decoded METAR 2020/10/29 17:00 UTC NOAA

Joao Pessoa, Brazil (SBJP) 07-06S 034-52W
Oct 29, 2020 - 01:00 PM EDT / 2020.10.29 1700 UTC
Wind: from the E (090 degrees) at 12 MPH (10 KT):0
Visibility: greater than 7 mile(s):0
Sky conditions: partly cloudy
Temperature: 86 F (30 C)
Dew Point: 69 F (21 C)
Relative Humidity: 58%
Pressure (altimeter): 29.85 in. Hg (1011 hPa)
ob: SBJP 291700Z 09010KT 9999 SCT030 30/21 Q1011
cycle: 17

Station Type Date Time Source
SBJP TAF 2020/10/29 18:09 UTC NOAA

TAF TAF SBJP 291500Z 2918/3018 08010KT 9999 SCT020 TN23/3007Z TX31/3016Z
BECMG 3015/3017 05010KT SCT030
RMK PHD

Example: see airport list